sensor_id;sensor_type;location;lat;lon;timestamp;P1;durP1;ratioP1;P2;durP2;ratioP2
59336;SDS011;45115;52.002;4.686;2022-10-17T00:02:20;16.05;;;9.10;;
59336;SDS011;45115;52.002;4.686;2022-10-17T00:04:47;16.80;;;9.32;;
59336;SDS011;45115;52.002;4.686;2022-10-17T00:07:15;17.45;;;9.73;;
59336;SDS011;45115;52.002;4.686;2022-10-17T00:09:42;18.85;;;10.25;;
59336;SDS011;45115;52.002;4.686;2022-10-17T00:12:09;18.35;;;10.38;;
59336;SDS011;45115;52.002;4.686;2022-10-17T00:14:36;17.83;;;9.48;;
59336;SDS011;45115;52.002;4.686;2022-10-17T00:17:03;19.08;;;10.18;;
59336;SDS011;45115;52.002;4.686;2022-10-17T00:19:30;18.25;;;10.32;;
59336;SDS011;45115;52.002;4.686;2022-10-17T00:21:56;18.48;;;10.38;;
59336;SDS011;45115;52.002;4.686;2022-10-17T00:24:24;17.33;;;9.70;;
59336;SDS011;45115;52.002;4.686;2022-10-17T00:26:51;18.77;;;11.32;;
59336;SDS011;45115;52.002;4.686;2022-10-17T00:29:18;18.50;;;10.32;;
59336;SDS011;45115;52.002;4.686;2022-10-17T00:31:46;20.02;;;10.70;;
59336;SDS011;45115;52.002;4.686;2022-10-17T00:34:13;20.92;;;11.25;;
59336;SDS011;45115;52.002;4.686;2022-10-17T00:36:39;19.13;;;10.68;;
59336;SDS011;45115;52.002;4.686;2022-10-17T00:39:06;19.05;;;10.48;;
59336;SDS011;45115;52.002;4.686;2022-10-17T00:41:34;18.83;;;10.77;;
59336;SDS011;45115;52.002;4.686;2022-10-17T00:44:04;19.58;;;11.32;;
59336;SDS011;45115;52.002;4.686;2022-10-17T00:46:33;20.60;;;11.18;;
59336;SDS011;45115;52.002;4.686;2022-10-17T00:49:02;20.45;;;11.40;;
59336;SDS011;45115;52.002;4.686;2022-10-17T00:51:33;24.92;;;11.57;;
59336;SDS011;45115;52.002;4.686;2022-10-17T00:54:02;21.35;;;11.88;;
59336;SDS011;45115;52.002;4.686;2022-10-17T00:56:30;20.73;;;11.93;;
59336;SDS011;45115;52.002;4.686;2022-10-17T00:58:59;18.30;;;10.52;;
59336;SDS011;45115;52.002;4.686;2022-10-17T01:01:26;26.45;;;11.98;;
59336;SDS011;45115;52.002;4.686;2022-10-17T01:03:53;18.92;;;11.00;;
59336;SDS011;45115;52.002;4.686;2022-10-17T01:06:19;18.33;;;10.88;;
59336;SDS011;45115;52.002;4.686;2022-10-17T01:08:46;20.00;;;11.57;;
59336;SDS011;45115;52.002;4.686;2022-10-17T01:11:18;18.83;;;11.07;;
59336;SDS011;45115;52.002;4.686;2022-10-17T01:13:51;20.73;;;11.25;;
59336;SDS011;45115;52.002;4.686;2022-10-17T01:16:25;19.52;;;11.80;;
59336;SDS011;45115;52.002;4.686;2022-10-17T01:19:02;20.25;;;11.32;;
59336;SDS011;45115;52.002;4.686;2022-10-17T01:21:43;21.15;;;12.60;;
59336;SDS011;45115;52.002;4.686;2022-10-17T01:24:32;22.60;;;12.32;;
59336;SDS011;45115;52.002;4.686;2022-10-17T01:27:28;21.15;;;11.90;;
59336;SDS011;45115;52.002;4.686;2022-10-17T01:30:43;19.98;;;12.02;;
59336;SDS011;45115;52.002;4.686;2022-10-17T01:33:26;22.08;;;12.20;;
59336;SDS011;45115;52.002;4.686;2022-10-17T01:35:58;21.95;;;12.40;;
59336;SDS011;45115;52.002;4.686;2022-10-17T01:38:32;21.98;;;12.48;;
59336;SDS011;45115;52.002;4.686;2022-10-17T01:41:02;23.83;;;12.70;;
59336;SDS011;45115;52.002;4.686;2022-10-17T01:43:38;21.80;;;12.52;;
59336;SDS011;45115;52.002;4.686;2022-10-17T01:46:12;22.98;;;11.93;;
59336;SDS011;45115;52.002;4.686;2022-10-17T01:48:56;21.80;;;12.13;;
59336;SDS011;45115;52.002;4.686;2022-10-17T01:51:27;22.80;;;12.48;;
59336;SDS011;45115;52.002;4.686;2022-10-17T01:53:59;20.65;;;12.55;;
59336;SDS011;45115;52.002;4.686;2022-10-17T01:56:29;22.63;;;12.18;;
59336;SDS011;45115;52.002;4.686;2022-10-17T01:58:59;23.13;;;12.32;;
59336;SDS011;45115;52.002;4.686;2022-10-17T02:01:31;22.52;;;12.45;;
59336;SDS011;45115;52.002;4.686;2022-10-17T02:04:01;21.85;;;11.95;;
59336;SDS011;45115;52.002;4.686;2022-10-17T02:06:32;21.30;;;12.05;;
59336;SDS011;45115;52.002;4.686;2022-10-17T02:11:27;20.40;;;11.40;;
59336;SDS011;45115;52.002;4.686;2022-10-17T02:14:02;22.02;;;11.65;;
59336;SDS011;45115;52.002;4.686;2022-10-17T02:16:40;20.52;;;11.10;;
59336;SDS011;45115;52.002;4.686;2022-10-17T02:19:17;22.83;;;11.75;;
59336;SDS011;45115;52.002;4.686;2022-10-17T02:22:00;21.52;;;11.73;;
59336;SDS011;45115;52.002;4.686;2022-10-17T02:24:38;19.55;;;11.73;;
59336;SDS011;45115;52.002;4.686;2022-10-17T02:27:14;24.30;;;12.30;;
59336;SDS011;45115;52.002;4.686;2022-10-17T02:29:49;20.90;;;11.55;;
59336;SDS011;45115;52.002;4.686;2022-10-17T02:32:25;20.98;;;12.30;;
59336;SDS011;45115;52.002;4.686;2022-10-17T02:34:59;22.63;;;12.25;;
59336;SDS011;45115;52.002;4.686;2022-10-17T02:37:28;22.65;;;12.80;;
59336;SDS011;45115;52.002;4.686;2022-10-17T02:39:58;24.00;;;12.43;;
59336;SDS011;45115;52.002;4.686;2022-10-17T02:42:26;26.63;;;14.02;;
59336;SDS011;45115;52.002;4.686;2022-10-17T02:44:55;22.17;;;12.65;;
59336;SDS011;45115;52.002;4.686;2022-10-17T02:47:27;22.50;;;12.23;;
59336;SDS011;45115;52.002;4.686;2022-10-17T02:49:57;22.52;;;12.32;;
59336;SDS011;45115;52.002;4.686;2022-10-17T02:52:27;23.67;;;13.38;;
59336;SDS011;45115;52.002;4.686;2022-10-17T02:55:02;23.75;;;12.88;;
59336;SDS011;45115;52.002;4.686;2022-10-17T02:57:35;22.58;;;12.93;;
59336;SDS011;45115;52.002;4.686;2022-10-17T03:00:06;25.92;;;14.65;;
59336;SDS011;45115;52.002;4.686;2022-10-17T03:02:42;26.35;;;14.65;;
59336;SDS011;45115;52.002;4.686;2022-10-17T03:05:11;27.30;;;16.30;;
59336;SDS011;45115;52.002;4.686;2022-10-17T03:07:39;27.73;;;17.60;;
59336;SDS011;45115;52.002;4.686;2022-10-17T03:10:06;26.90;;;17.05;;
59336;SDS011;45115;52.002;4.686;2022-10-17T03:12:33;30.42;;;18.38;;
59336;SDS011;45115;52.002;4.686;2022-10-17T03:15:00;26.90;;;17.52;;
59336;SDS011;45115;52.002;4.686;2022-10-17T03:17:29;30.13;;;18.17;;
59336;SDS011;45115;52.002;4.686;2022-10-17T03:19:57;29.85;;;18.75;;
59336;SDS011;45115;52.002;4.686;2022-10-17T03:22:24;30.13;;;19.42;;
59336;SDS011;45115;52.002;4.686;2022-10-17T03:24:50;29.83;;;19.33;;
59336;SDS011;45115;52.002;4.686;2022-10-17T03:27:18;29.70;;;18.83;;
59336;SDS011;45115;52.002;4.686;2022-10-17T03:29:45;27.60;;;17.88;;
59336;SDS011;45115;52.002;4.686;2022-10-17T03:32:13;29.45;;;18.10;;
59336;SDS011;45115;52.002;4.686;2022-10-17T03:34:40;27.90;;;17.48;;
59336;SDS011;45115;52.002;4.686;2022-10-17T03:37:09;27.00;;;16.77;;
59336;SDS011;45115;52.002;4.686;2022-10-17T03:39:38;24.52;;;15.50;;
59336;SDS011;45115;52.002;4.686;2022-10-17T03:42:04;24.20;;;14.20;;
59336;SDS011;45115;52.002;4.686;2022-10-17T03:44:31;25.58;;;15.48;;
59336;SDS011;45115;52.002;4.686;2022-10-17T03:46:58;24.38;;;14.90;;
59336;SDS011;45115;52.002;4.686;2022-10-17T03:49:25;22.52;;;13.90;;
59336;SDS011;45115;52.002;4.686;2022-10-17T03:51:51;25.85;;;14.95;;
59336;SDS011;45115;52.002;4.686;2022-10-17T03:54:19;22.23;;;12.50;;
59336;SDS011;45115;52.002;4.686;2022-10-17T03:56:46;21.75;;;12.25;;
59336;SDS011;45115;52.002;4.686;2022-10-17T03:59:16;23.02;;;12.50;;
59336;SDS011;45115;52.002;4.686;2022-10-17T04:01:49;20.17;;;12.13;;
59336;SDS011;45115;52.002;4.686;2022-10-17T04:04:17;21.50;;;12.05;;
59336;SDS011;45115;52.002;4.686;2022-10-17T04:06:44;21.55;;;11.77;;
59336;SDS011;45115;52.002;4.686;2022-10-17T04:09:10;18.08;;;10.52;;
59336;SDS011;45115;52.002;4.686;2022-10-17T04:11:53;20.33;;;11.32;;
59336;SDS011;45115;52.002;4.686;2022-10-17T04:14:21;20.33;;;11.13;;
59336;SDS011;45115;52.002;4.686;2022-10-17T04:16:49;22.17;;;11.45;;
59336;SDS011;45115;52.002;4.686;2022-10-17T04:19:19;20.40;;;10.43;;
59336;SDS011;45115;52.002;4.686;2022-10-17T04:21:46;19.65;;;11.07;;
59336;SDS011;45115;52.002;4.686;2022-10-17T04:24:14;19.30;;;10.75;;
59336;SDS011;45115;52.002;4.686;2022-10-17T04:27:00;19.27;;;11.13;;
59336;SDS011;45115;52.002;4.686;2022-10-17T04:29:30;21.35;;;11.30;;
59336;SDS011;45115;52.002;4.686;2022-10-17T04:32:17;19.13;;;10.98;;
59336;SDS011;45115;52.002;4.686;2022-10-17T04:34:52;20.15;;;11.50;;
59336;SDS011;45115;52.002;4.686;2022-10-17T04:37:21;22.80;;;11.10;;
59336;SDS011;45115;52.002;4.686;2022-10-17T04:39:50;18.77;;;10.73;;
59336;SDS011;45115;52.002;4.686;2022-10-17T04:42:18;18.70;;;10.18;;
59336;SDS011;45115;52.002;4.686;2022-10-17T04:44:45;19.08;;;11.10;;
59336;SDS011;45115;52.002;4.686;2022-10-17T04:47:15;21.35;;;10.63;;
59336;SDS011;45115;52.002;4.686;2022-10-17T04:49:48;19.40;;;10.85;;
59336;SDS011;45115;52.002;4.686;2022-10-17T04:52:33;21.08;;;10.93;;
59336;SDS011;45115;52.002;4.686;2022-10-17T04:55:01;19.20;;;10.20;;
59336;SDS011;45115;52.002;4.686;2022-10-17T04:57:30;20.85;;;11.48;;
59336;SDS011;45115;52.002;4.686;2022-10-17T05:00:06;21.63;;;10.63;;
59336;SDS011;45115;52.002;4.686;2022-10-17T05:02:52;21.27;;;11.65;;
59336;SDS011;45115;52.002;4.686;2022-10-17T05:05:19;19.52;;;11.70;;
59336;SDS011;45115;52.002;4.686;2022-10-17T05:07:49;20.48;;;11.07;;
59336;SDS011;45115;52.002;4.686;2022-10-17T05:10:22;20.02;;;11.10;;
59336;SDS011;45115;52.002;4.686;2022-10-17T05:12:52;22.40;;;11.85;;
59336;SDS011;45115;52.002;4.686;2022-10-17T05:17:53;19.45;;;10.93;;
59336;SDS011;45115;52.002;4.686;2022-10-17T05:20:20;21.27;;;11.70;;
59336;SDS011;45115;52.002;4.686;2022-10-17T05:22:47;19.98;;;11.98;;
59336;SDS011;45115;52.002;4.686;2022-10-17T05:25:14;20.33;;;11.20;;
59336;SDS011;45115;52.002;4.686;2022-10-17T05:27:41;23.98;;;12.68;;
59336;SDS011;45115;52.002;4.686;2022-10-17T05:30:09;19.95;;;11.98;;
59336;SDS011;45115;52.002;4.686;2022-10-17T05:32:37;20.38;;;11.30;;
59336;SDS011;45115;52.002;4.686;2022-10-17T05:35:05;19.98;;;12.15;;
59336;SDS011;45115;52.002;4.686;2022-10-17T05:37:32;19.77;;;11.65;;
59336;SDS011;45115;52.002;4.686;2022-10-17T05:40:00;23.42;;;12.85;;
59336;SDS011;45115;52.002;4.686;2022-10-17T05:42:28;19.70;;;12.73;;
59336;SDS011;45115;52.002;4.686;2022-10-17T05:44:56;21.27;;;12.90;;
59336;SDS011;45115;52.002;4.686;2022-10-17T05:47:25;18.73;;;11.25;;
59336;SDS011;45115;52.002;4.686;2022-10-17T05:49:52;20.88;;;11.38;;
59336;SDS011;45115;52.002;4.686;2022-10-17T05:52:25;20.35;;;11.65;;
59336;SDS011;45115;52.002;4.686;2022-10-17T05:55:12;20.67;;;11.20;;
59336;SDS011;45115;52.002;4.686;2022-10-17T05:57:38;21.63;;;11.50;;
59336;SDS011;45115;52.002;4.686;2022-10-17T06:00:10;20.55;;;10.80;;
59336;SDS011;45115;52.002;4.686;2022-10-17T06:02:43;21.05;;;12.05;;
59336;SDS011;45115;52.002;4.686;2022-10-17T06:05:12;20.63;;;10.80;;
59336;SDS011;45115;52.002;4.686;2022-10-17T06:07:40;21.23;;;12.05;;
59336;SDS011;45115;52.002;4.686;2022-10-17T06:10:08;18.60;;;11.20;;
59336;SDS011;45115;52.002;4.686;2022-10-17T06:12:37;19.50;;;11.48;;
59336;SDS011;45115;52.002;4.686;2022-10-17T06:15:04;20.17;;;11.05;;
59336;SDS011;45115;52.002;4.686;2022-10-17T06:17:34;22.30;;;11.80;;
59336;SDS011;45115;52.002;4.686;2022-10-17T06:20:02;18.80;;;10.80;;
59336;SDS011;45115;52.002;4.686;2022-10-17T06:22:31;19.85;;;10.80;;
59336;SDS011;45115;52.002;4.686;2022-10-17T06:25:00;19.77;;;11.10;;
59336;SDS011;45115;52.002;4.686;2022-10-17T06:27:27;18.48;;;9.68;;
59336;SDS011;45115;52.002;4.686;2022-10-17T06:29:55;18.00;;;10.25;;
59336;SDS011;45115;52.002;4.686;2022-10-17T06:32:21;19.42;;;10.05;;
59336;SDS011;45115;52.002;4.686;2022-10-17T06:34:49;17.98;;;9.75;;
59336;SDS011;45115;52.002;4.686;2022-10-17T06:37:17;17.85;;;9.68;;
59336;SDS011;45115;52.002;4.686;2022-10-17T06:39:45;19.10;;;10.07;;
59336;SDS011;45115;52.002;4.686;2022-10-17T06:42:15;16.85;;;10.02;;
59336;SDS011;45115;52.002;4.686;2022-10-17T06:44:46;21.83;;;10.43;;
59336;SDS011;45115;52.002;4.686;2022-10-17T06:47:35;19.15;;;9.88;;
59336;SDS011;45115;52.002;4.686;2022-10-17T06:50:13;17.83;;;9.55;;
59336;SDS011;45115;52.002;4.686;2022-10-17T06:52:56;17.92;;;10.20;;
59336;SDS011;45115;52.002;4.686;2022-10-17T06:55:58;18.20;;;10.20;;
59336;SDS011;45115;52.002;4.686;2022-10-17T06:58:56;17.70;;;9.95;;
59336;SDS011;45115;52.002;4.686;2022-10-17T07:01:27;19.63;;;10.73;;
59336;SDS011;45115;52.002;4.686;2022-10-17T07:03:57;18.65;;;10.90;;
59336;SDS011;45115;52.002;4.686;2022-10-17T07:06:24;17.05;;;10.73;;
59336;SDS011;45115;52.002;4.686;2022-10-17T07:08:55;19.65;;;10.45;;
59336;SDS011;45115;52.002;4.686;2022-10-17T07:11:22;17.85;;;10.15;;
59336;SDS011;45115;52.002;4.686;2022-10-17T07:13:51;19.23;;;10.15;;
59336;SDS011;45115;52.002;4.686;2022-10-17T07:16:19;18.90;;;10.68;;
59336;SDS011;45115;52.002;4.686;2022-10-17T07:18:52;18.20;;;10.02;;
59336;SDS011;45115;52.002;4.686;2022-10-17T07:21:20;18.85;;;10.43;;
59336;SDS011;45115;52.002;4.686;2022-10-17T07:23:47;19.48;;;10.10;;
59336;SDS011;45115;52.002;4.686;2022-10-17T07:26:15;19.48;;;9.85;;
59336;SDS011;45115;52.002;4.686;2022-10-17T07:28:44;19.38;;;10.38;;
59336;SDS011;45115;52.002;4.686;2022-10-17T07:31:32;17.35;;;10.05;;
59336;SDS011;45115;52.002;4.686;2022-10-17T07:33:59;19.60;;;10.02;;
59336;SDS011;45115;52.002;4.686;2022-10-17T07:36:26;19.02;;;10.07;;
59336;SDS011;45115;52.002;4.686;2022-10-17T07:38:55;18.42;;;9.57;;
59336;SDS011;45115;52.002;4.686;2022-10-17T07:41:24;18.60;;;10.20;;
59336;SDS011;45115;52.002;4.686;2022-10-17T07:43:51;19.65;;;11.00;;
59336;SDS011;45115;52.002;4.686;2022-10-17T07:46:23;19.30;;;10.82;;
59336;SDS011;45115;52.002;4.686;2022-10-17T07:48:49;19.45;;;10.40;;
59336;SDS011;45115;52.002;4.686;2022-10-17T07:51:19;21.25;;;10.90;;
59336;SDS011;45115;52.002;4.686;2022-10-17T07:53:46;18.65;;;10.43;;
59336;SDS011;45115;52.002;4.686;2022-10-17T07:56:13;21.13;;;10.63;;
59336;SDS011;45115;52.002;4.686;2022-10-17T07:58:41;18.80;;;10.00;;
59336;SDS011;45115;52.002;4.686;2022-10-17T08:01:08;21.00;;;11.00;;
59336;SDS011;45115;52.002;4.686;2022-10-17T08:03:38;18.83;;;10.30;;
59336;SDS011;45115;52.002;4.686;2022-10-17T08:06:05;18.15;;;9.80;;
59336;SDS011;45115;52.002;4.686;2022-10-17T08:08:32;18.55;;;10.48;;
59336;SDS011;45115;52.002;4.686;2022-10-17T08:11:00;21.98;;;10.23;;
59336;SDS011;45115;52.002;4.686;2022-10-17T08:13:29;19.50;;;10.70;;
59336;SDS011;45115;52.002;4.686;2022-10-17T08:15:59;17.60;;;9.43;;
59336;SDS011;45115;52.002;4.686;2022-10-17T08:18:26;17.08;;;9.27;;
59336;SDS011;45115;52.002;4.686;2022-10-17T08:20:58;17.40;;;9.18;;
59336;SDS011;45115;52.002;4.686;2022-10-17T08:23:25;17.63;;;9.52;;
59336;SDS011;45115;52.002;4.686;2022-10-17T08:25:52;20.92;;;9.57;;
59336;SDS011;45115;52.002;4.686;2022-10-17T08:28:19;16.95;;;9.45;;
59336;SDS011;45115;52.002;4.686;2022-10-17T08:30:45;18.45;;;9.18;;
59336;SDS011;45115;52.002;4.686;2022-10-17T08:33:13;19.52;;;9.07;;
59336;SDS011;45115;52.002;4.686;2022-10-17T08:35:40;16.60;;;8.65;;
59336;SDS011;45115;52.002;4.686;2022-10-17T08:38:06;16.05;;;9.35;;
59336;SDS011;45115;52.002;4.686;2022-10-17T08:40:33;16.95;;;8.90;;
59336;SDS011;45115;52.002;4.686;2022-10-17T08:43:12;16.35;;;9.85;;
59336;SDS011;45115;52.002;4.686;2022-10-17T08:45:48;15.90;;;9.20;;
59336;SDS011;45115;52.002;4.686;2022-10-17T08:48:20;15.38;;;8.88;;
59336;SDS011;45115;52.002;4.686;2022-10-17T08:50:52;15.65;;;8.82;;
59336;SDS011;45115;52.002;4.686;2022-10-17T08:55:50;15.95;;;8.45;;
59336;SDS011;45115;52.002;4.686;2022-10-17T08:58:19;15.13;;;8.57;;
59336;SDS011;45115;52.002;4.686;2022-10-17T09:00:50;14.85;;;8.35;;
59336;SDS011;45115;52.002;4.686;2022-10-17T09:03:34;16.00;;;9.30;;
59336;SDS011;45115;52.002;4.686;2022-10-17T09:06:14;16.73;;;9.20;;
59336;SDS011;45115;52.002;4.686;2022-10-17T09:09:00;18.75;;;9.73;;
59336;SDS011;45115;52.002;4.686;2022-10-17T09:11:38;16.00;;;9.65;;
59336;SDS011;45115;52.002;4.686;2022-10-17T09:14:28;19.52;;;10.15;;
59336;SDS011;45115;52.002;4.686;2022-10-17T09:17:08;20.25;;;10.32;;
59336;SDS011;45115;52.002;4.686;2022-10-17T09:19:44;18.83;;;10.23;;
59336;SDS011;45115;52.002;4.686;2022-10-17T09:22:19;17.90;;;9.00;;
59336;SDS011;45115;52.002;4.686;2022-10-17T09:24:49;17.70;;;9.85;;
59336;SDS011;45115;52.002;4.686;2022-10-17T09:27:21;17.67;;;9.38;;
59336;SDS011;45115;52.002;4.686;2022-10-17T09:29:49;17.80;;;8.88;;
59336;SDS011;45115;52.002;4.686;2022-10-17T09:32:21;16.75;;;8.93;;
59336;SDS011;45115;52.002;4.686;2022-10-17T09:34:51;17.27;;;9.77;;
59336;SDS011;45115;52.002;4.686;2022-10-17T09:37:18;17.35;;;9.55;;
59336;SDS011;45115;52.002;4.686;2022-10-17T09:39:50;17.27;;;9.18;;
59336;SDS011;45115;52.002;4.686;2022-10-17T09:42:16;16.30;;;9.63;;
59336;SDS011;45115;52.002;4.686;2022-10-17T09:44:50;20.02;;;9.35;;
59336;SDS011;45115;52.002;4.686;2022-10-17T09:47:22;16.08;;;8.65;;
59336;SDS011;45115;52.002;4.686;2022-10-17T09:49:55;15.88;;;8.60;;
59336;SDS011;45115;52.002;4.686;2022-10-17T09:52:24;14.38;;;8.10;;
59336;SDS011;45115;52.002;4.686;2022-10-17T09:54:54;16.50;;;8.90;;
59336;SDS011;45115;52.002;4.686;2022-10-17T09:57:25;14.90;;;8.15;;
59336;SDS011;45115;52.002;4.686;2022-10-17T09:59:56;16.08;;;9.13;;
59336;SDS011;45115;52.002;4.686;2022-10-17T10:02:25;15.55;;;8.50;;
59336;SDS011;45115;52.002;4.686;2022-10-17T10:04:54;14.90;;;8.20;;
59336;SDS011;45115;52.002;4.686;2022-10-17T10:07:24;16.52;;;8.23;;
59336;SDS011;45115;52.002;4.686;2022-10-17T10:09:53;15.50;;;8.40;;
59336;SDS011;45115;52.002;4.686;2022-10-17T10:12:21;13.60;;;8.02;;
59336;SDS011;45115;52.002;4.686;2022-10-17T10:14:49;14.38;;;8.30;;
59336;SDS011;45115;52.002;4.686;2022-10-17T10:17:27;14.00;;;7.60;;
59336;SDS011;45115;52.002;4.686;2022-10-17T10:20:01;14.68;;;7.57;;
59336;SDS011;45115;52.002;4.686;2022-10-17T10:22:29;13.65;;;7.18;;
59336;SDS011;45115;52.002;4.686;2022-10-17T10:25:11;12.20;;;7.10;;
59336;SDS011;45115;52.002;4.686;2022-10-17T10:27:40;13.75;;;7.03;;
59336;SDS011;45115;52.002;4.686;2022-10-17T10:30:15;13.13;;;6.93;;
59336;SDS011;45115;52.002;4.686;2022-10-17T10:32:44;12.70;;;7.05;;
59336;SDS011;45115;52.002;4.686;2022-10-17T10:35:19;11.40;;;6.57;;
59336;SDS011;45115;52.002;4.686;2022-10-17T10:37:48;13.10;;;7.03;;
59336;SDS011;45115;52.002;4.686;2022-10-17T10:40:17;14.43;;;7.03;;
59336;SDS011;45115;52.002;4.686;2022-10-17T10:42:46;11.65;;;6.70;;
59336;SDS011;45115;52.002;4.686;2022-10-17T10:45:16;12.23;;;6.90;;
59336;SDS011;45115;52.002;4.686;2022-10-17T10:47:50;13.90;;;6.85;;
59336;SDS011;45115;52.002;4.686;2022-10-17T10:50:25;11.18;;;6.63;;
59336;SDS011;45115;52.002;4.686;2022-10-17T10:52:59;11.48;;;6.75;;
59336;SDS011;45115;52.002;4.686;2022-10-17T10:55:41;10.80;;;6.20;;
59336;SDS011;45115;52.002;4.686;2022-10-17T10:58:19;10.93;;;6.43;;
59336;SDS011;45115;52.002;4.686;2022-10-17T11:00:51;12.35;;;6.10;;
59336;SDS011;45115;52.002;4.686;2022-10-17T11:03:22;10.65;;;6.35;;
59336;SDS011;45115;52.002;4.686;2022-10-17T11:05:57;11.60;;;6.35;;
59336;SDS011;45115;52.002;4.686;2022-10-17T11:08:28;10.25;;;5.70;;
59336;SDS011;45115;52.002;4.686;2022-10-17T11:11:09;10.52;;;5.82;;
59336;SDS011;45115;52.002;4.686;2022-10-17T11:13:44;10.48;;;5.57;;
59336;SDS011;45115;52.002;4.686;2022-10-17T11:16:18;10.00;;;5.45;;
59336;SDS011;45115;52.002;4.686;2022-10-17T11:18:56;10.82;;;6.03;;
59336;SDS011;45115;52.002;4.686;2022-10-17T11:21:33;9.63;;;6.00;;
59336;SDS011;45115;52.002;4.686;2022-10-17T11:24:08;9.95;;;5.50;;
59336;SDS011;45115;52.002;4.686;2022-10-17T11:26:40;13.07;;;6.47;;
59336;SDS011;45115;52.002;4.686;2022-10-17T11:29:11;12.40;;;6.20;;
59336;SDS011;45115;52.002;4.686;2022-10-17T11:31:39;8.50;;;5.65;;
59336;SDS011;45115;52.002;4.686;2022-10-17T11:34:11;12.52;;;6.78;;
59336;SDS011;45115;52.002;4.686;2022-10-17T11:36:46;12.95;;;6.95;;
59336;SDS011;45115;52.002;4.686;2022-10-17T11:39:17;11.85;;;6.75;;
59336;SDS011;45115;52.002;4.686;2022-10-17T11:41:48;12.23;;;6.80;;
59336;SDS011;45115;52.002;4.686;2022-10-17T11:44:19;11.85;;;6.95;;
59336;SDS011;45115;52.002;4.686;2022-10-17T11:46:51;10.77;;;6.38;;
59336;SDS011;45115;52.002;4.686;2022-10-17T11:49:23;11.52;;;6.65;;
59336;SDS011;45115;52.002;4.686;2022-10-17T11:51:59;14.40;;;6.85;;
59336;SDS011;45115;52.002;4.686;2022-10-17T11:54:34;11.32;;;6.63;;
59336;SDS011;45115;52.002;4.686;2022-10-17T11:57:23;10.63;;;6.35;;
59336;SDS011;45115;52.002;4.686;2022-10-17T12:00:08;11.52;;;5.88;;
59336;SDS011;45115;52.002;4.686;2022-10-17T12:02:45;10.70;;;6.18;;
59336;SDS011;45115;52.002;4.686;2022-10-17T12:05:19;12.05;;;6.07;;
59336;SDS011;45115;52.002;4.686;2022-10-17T12:07:53;8.57;;;5.18;;
59336;SDS011;45115;52.002;4.686;2022-10-17T12:10:32;11.35;;;5.72;;
59336;SDS011;45115;52.002;4.686;2022-10-17T12:22:06;9.55;;;5.20;;
59336;SDS011;45115;52.002;4.686;2022-10-17T12:24:51;9.40;;;4.93;;
59336;SDS011;45115;52.002;4.686;2022-10-17T12:27:30;9.35;;;5.45;;
59336;SDS011;45115;52.002;4.686;2022-10-17T12:30:04;9.75;;;5.20;;
59336;SDS011;45115;52.002;4.686;2022-10-17T12:32:54;12.00;;;5.20;;
59336;SDS011;45115;52.002;4.686;2022-10-17T12:35:27;9.18;;;4.93;;
59336;SDS011;45115;52.002;4.686;2022-10-17T12:37:59;8.52;;;4.93;;
59336;SDS011;45115;52.002;4.686;2022-10-17T12:40:54;10.03;;;5.73;;
59336;SDS011;45115;52.002;4.686;2022-10-17T12:49:35;10.82;;;5.75;;
59336;SDS011;45115;52.002;4.686;2022-10-17T12:52:15;10.77;;;6.15;;
59336;SDS011;45115;52.002;4.686;2022-10-17T12:54:54;8.95;;;5.32;;
59336;SDS011;45115;52.002;4.686;2022-10-17T12:57:29;10.68;;;5.95;;
59336;SDS011;45115;52.002;4.686;2022-10-17T13:00:00;10.13;;;5.60;;
59336;SDS011;45115;52.002;4.686;2022-10-17T13:02:29;11.05;;;6.07;;
59336;SDS011;45115;52.002;4.686;2022-10-17T13:04:58;9.20;;;5.40;;
59336;SDS011;45115;52.002;4.686;2022-10-17T13:07:33;10.10;;;5.53;;
59336;SDS011;45115;52.002;4.686;2022-10-17T13:10:02;11.13;;;6.53;;
59336;SDS011;45115;52.002;4.686;2022-10-17T13:12:31;10.65;;;5.55;;
59336;SDS011;45115;52.002;4.686;2022-10-17T13:15:02;9.88;;;5.78;;
59336;SDS011;45115;52.002;4.686;2022-10-17T13:17:32;9.60;;;5.97;;
59336;SDS011;45115;52.002;4.686;2022-10-17T13:19:59;10.75;;;6.10;;
59336;SDS011;45115;52.002;4.686;2022-10-17T13:22:26;12.15;;;6.63;;
59336;SDS011;45115;52.002;4.686;2022-10-17T13:25:04;11.35;;;5.90;;
59336;SDS011;45115;52.002;4.686;2022-10-17T13:27:34;12.65;;;5.78;;
59336;SDS011;45115;52.002;4.686;2022-10-17T13:30:16;10.40;;;6.05;;
59336;SDS011;45115;52.002;4.686;2022-10-17T13:32:48;9.50;;;5.45;;
59336;SDS011;45115;52.002;4.686;2022-10-17T13:35:15;8.48;;;5.30;;
59336;SDS011;45115;52.002;4.686;2022-10-17T13:37:49;8.82;;;5.25;;
59336;SDS011;45115;52.002;4.686;2022-10-17T13:40:18;8.75;;;5.25;;
59336;SDS011;45115;52.002;4.686;2022-10-17T13:42:48;8.80;;;5.18;;
59336;SDS011;45115;52.002;4.686;2022-10-17T13:45:18;8.63;;;4.80;;
59336;SDS011;45115;52.002;4.686;2022-10-17T13:47:49;9.50;;;5.13;;
59336;SDS011;45115;52.002;4.686;2022-10-17T13:50:19;8.73;;;5.22;;
59336;SDS011;45115;52.002;4.686;2022-10-17T13:53:04;8.80;;;5.15;;
59336;SDS011;45115;52.002;4.686;2022-10-17T13:55:32;10.48;;;6.18;;
59336;SDS011;45115;52.002;4.686;2022-10-17T13:58:09;10.20;;;5.47;;
59336;SDS011;45115;52.002;4.686;2022-10-17T14:00:40;8.73;;;4.82;;
59336;SDS011;45115;52.002;4.686;2022-10-17T14:03:08;13.82;;;5.43;;
